Skip to main content.
Our real time weather data display below is updated continuously via our 24/7 live data feed.
 TIME   TEMPERATURE   WINDSPEED   DIRECTION   HUMIDITY   BAROMETER   RAINFALL 
5:30 19.0°C (66.2°F) 29.6 kmh (18.4 mph) NW 77% 1010.8hPa (29.85 inHg) 0.0mm (0.00 in.)
4:30 19.0°C (66.2 °F) 31.5 kmh (19.6 mph) NW 77% 1010.2hPa (29.83 inHg) 0.0mm (0.00 in.)
3:30 19.0°C (66.2 °F) 25.9 kmh (16.1 mph) NW 77% 1010.2hPa (29.83 inHg) 0.0mm (0.00 in.)
2:30 19.0°C (66.2 °F) 29.6 kmh (18.4 mph) NW 77% 1010.2hPa (29.83 inHg) 0.0mm (0.00 in.)
1:30 20.0°C (68.0 °F) 31.5 kmh (19.6 mph) NW 72% 1010.2hPa (29.83 inHg) 0.0mm (0.00 in.)
0:30 20.0°C (68.0 °F) 33.3 kmh (20.7 mph) NW 77% 1010.2hPa (29.83 inHg) 0.0mm (0.00 in.)
23:30 20.0°C (68.0 °F) 31.5 kmh (19.6 mph) NW 77% 1010.2hPa (29.83 inHg) 0.0mm (0.00 in.)
22:30 20.0°C (68.0 °F) 37.0 kmh (23.0 mph) NW 77% 1009.1hPa (29.80 inHg) 0.0mm (0.00 in.)
21:30 20.0°C (68.0 °F) 40.7 kmh (25.3 mph) NW 77% 1008.1hPa (29.77 inHg) 0.0mm (0.00 in.)
20:30 20.0°C (68.0 °F) 38.9 kmh (24.2 mph) WNW 77% 1007.1hPa (29.74 inHg) 0.0mm (0.00 in.)
19:30 21.0°C (69.8 °F) 46.3 kmh (28.8 mph) WNW 68% 1006.1hPa (29.71 inHg) 0.0mm (0.00 in.)
18:30 23.0°C (73.4 °F) 50.0 kmh (31.1 mph) NW 64% 1006.1hPa (29.71 inHg) 0.0mm (0.00 in.)
17:30 23.0°C (73.4 °F) 42.6 kmh (26.5 mph) NW 60% 1005.1hPa (29.68 inHg) 0.0mm (0.00 in.)
16:30 24.0°C (75.2 °F) 50.0 kmh (31.1 mph) NW 64% 1005.1hPa (29.68 inHg) 0.0mm (0.00 in.)
15:30 24.0°C (75.2 °F) 46.3 kmh (28.8 mph) NNW 60% 1004.1hPa (29.65 inHg) 0.0mm (0.00 in.)
14:30 25.0°C (77.0 °F) 24.1 kmh (15.0 mph) NNW 69% 1003.0hPa (29.62 inHg) 0.0mm (0.00 in.)
13:30 23.0°C (73.4 °F) 31.5 kmh (19.6 mph) NNE 78% 1002.0hPa (29.59 inHg) 0.0mm (0.00 in.)
12:30 23.0°C (73.4 °F) 31.5 kmh (19.6 mph) NNE 78% 1002.0hPa (29.59 inHg) 0.0mm (0.00 in.)
11:30 24.0°C (75.2 °F) 27.8 kmh (17.3 mph) NNE 73% 1003.0hPa (29.62 inHg) 0.0mm (0.00 in.)
10:30 25.0°C (77.0 °F) 18.5 kmh (11.5 mph) NNE 69% 1003.0hPa (29.62 inHg) 0.0mm (0.00 in.)
9:30 24.0°C (75.2 °F) 24.1 kmh (15.0 mph) E 73% 1002.0hPa (29.59 inHg) 0.0mm (0.00 in.)
8:30 22.0°C (71.6 °F) 24.1 kmh (15.0 mph) E 83% 1003.0hPa (29.62 inHg) 0.0mm (0.00 in.)
7:30 21.0°C (69.8 °F) 22.2 kmh (13.8 mph) E 88% 1003.0hPa (29.62 inHg) 0.0mm (0.00 in.)
6:30 21.0°C (69.8 °F) 22.2 kmh (13.8 mph) ENE 88% 1004.1hPa (29.65 inHg) 0.0mm (0.00 in.)